sensor_id;sensor_type;location;lat;lon;timestamp;temperature;humidity
21944;DHT22;11136;48.778;9.126;2022-12-18T00:00:46;-3.70;99.00
21944;DHT22;11136;48.778;9.126;2022-12-18T00:03:15;-3.90;98.90
21944;DHT22;11136;48.778;9.126;2022-12-18T00:05:51;-3.90;99.00
21944;DHT22;11136;48.778;9.126;2022-12-18T00:08:17;-3.90;98.90
21944;DHT22;11136;48.778;9.126;2022-12-18T00:10:43;-3.90;98.90
21944;DHT22;11136;48.778;9.126;2022-12-18T00:13:09;-3.90;98.90
21944;DHT22;11136;48.778;9.126;2022-12-18T00:15:36;-4.00;99.00
21944;DHT22;11136;48.778;9.126;2022-12-18T00:18:01;-4.00;99.00
21944;DHT22;11136;48.778;9.126;2022-12-18T00:20:27;-3.90;99.00
21944;DHT22;11136;48.778;9.126;2022-12-18T00:22:53;-4.00;99.10
21944;DHT22;11136;48.778;9.126;2022-12-18T00:25:18;-4.00;99.10
21944;DHT22;11136;48.778;9.126;2022-12-18T00:27:44;-4.00;99.20
21944;DHT22;11136;48.778;9.126;2022-12-18T00:30:10;-3.80;99.30
21944;DHT22;11136;48.778;9.126;2022-12-18T00:32:36;-4.00;99.40
21944;DHT22;11136;48.778;9.126;2022-12-18T00:35:02;-4.00;99.40
21944;DHT22;11136;48.778;9.126;2022-12-18T00:37:28;-4.00;99.50
21944;DHT22;11136;48.778;9.126;2022-12-18T00:39:54;-3.90;99.60
21944;DHT22;11136;48.778;9.126;2022-12-18T00:42:19;-3.90;99.60
21944;DHT22;11136;48.778;9.126;2022-12-18T00:45:04;-4.00;99.60
21944;DHT22;11136;48.778;9.126;2022-12-18T00:47:30;-4.00;99.70
21944;DHT22;11136;48.778;9.126;2022-12-18T00:49:55;-4.00;99.60
21944;DHT22;11136;48.778;9.126;2022-12-18T00:52:21;-4.00;99.60
21944;DHT22;11136;48.778;9.126;2022-12-18T00:54:46;-4.00;99.70
21944;DHT22;11136;48.778;9.126;2022-12-18T00:57:12;-4.00;99.70
21944;DHT22;11136;48.778;9.126;2022-12-18T00:59:37;-4.00;99.70
21944;DHT22;11136;48.778;9.126;2022-12-18T01:02:03;-4.00;99.80
21944;DHT22;11136;48.778;9.126;2022-12-18T01:04:32;-4.00;99.90
21944;DHT22;11136;48.778;9.126;2022-12-18T01:06:57;-3.80;99.90
21944;DHT22;11136;48.778;9.126;2022-12-18T01:09:23;-4.00;99.90
21944;DHT22;11136;48.778;9.126;2022-12-18T01:11:48;-4.00;99.90
21944;DHT22;11136;48.778;9.126;2022-12-18T01:14:14;-4.10;99.90
21944;DHT22;11136;48.778;9.126;2022-12-18T01:16:39;-4.20;99.90
21944;DHT22;11136;48.778;9.126;2022-12-18T01:19:05;-4.20;99.90
21944;DHT22;11136;48.778;9.126;2022-12-18T01:21:31;-4.00;99.90
21944;DHT22;11136;48.778;9.126;2022-12-18T01:23:57;-4.20;99.90
21944;DHT22;11136;48.778;9.126;2022-12-18T01:26:23;-4.20;99.90
21944;DHT22;11136;48.778;9.126;2022-12-18T01:28:49;-4.20;99.90
21944;DHT22;11136;48.778;9.126;2022-12-18T01:31:23;-4.20;99.90
21944;DHT22;11136;48.778;9.126;2022-12-18T01:33:49;-4.20;99.90
21944;DHT22;11136;48.778;9.126;2022-12-18T01:36:17;-4.20;99.90
21944;DHT22;11136;48.778;9.126;2022-12-18T01:38:43;-4.20;99.90
21944;DHT22;11136;48.778;9.126;2022-12-18T01:41:09;-4.20;99.90
21944;DHT22;11136;48.778;9.126;2022-12-18T01:43:47;-4.30;99.90
21944;DHT22;11136;48.778;9.126;2022-12-18T01:46:13;-4.20;99.90
21944;DHT22;11136;48.778;9.126;2022-12-18T01:48:39;-4.10;99.90
21944;DHT22;11136;48.778;9.126;2022-12-18T01:51:06;-4.10;99.90
21944;DHT22;11136;48.778;9.126;2022-12-18T01:53:33;-4.30;99.90
21944;DHT22;11136;48.778;9.126;2022-12-18T01:55:59;-4.30;99.90
21944;DHT22;11136;48.778;9.126;2022-12-18T01:58:46;-4.10;99.90
21944;DHT22;11136;48.778;9.126;2022-12-18T02:01:12;-4.20;99.90
21944;DHT22;11136;48.778;9.126;2022-12-18T02:03:42;-4.20;99.90
21944;DHT22;11136;48.778;9.126;2022-12-18T02:11:23;-4.20;99.90
21944;DHT22;11136;48.778;9.126;2022-12-18T02:16:35;-4.20;99.90
21944;DHT22;11136;48.778;9.126;2022-12-18T02:27:45;-4.20;99.90
21944;DHT22;11136;48.778;9.126;2022-12-18T02:30:12;-4.20;99.90
21944;DHT22;11136;48.778;9.126;2022-12-18T02:32:42;-4.20;99.90
21944;DHT22;11136;48.778;9.126;2022-12-18T02:35:16;-4.20;99.90
21944;DHT22;11136;48.778;9.126;2022-12-18T02:37:43;-4.20;99.90
21944;DHT22;11136;48.778;9.126;2022-12-18T02:40:11;-4.20;99.90
21944;DHT22;11136;48.778;9.126;2022-12-18T02:42:38;-4.20;99.90
21944;DHT22;11136;48.778;9.126;2022-12-18T02:45:04;-4.20;99.90
21944;DHT22;11136;48.778;9.126;2022-12-18T02:47:33;-4.20;99.90
21944;DHT22;11136;48.778;9.126;2022-12-18T02:50:13;-4.00;99.90
21944;DHT22;11136;48.778;9.126;2022-12-18T02:58:31;-4.10;99.90
21944;DHT22;11136;48.778;9.126;2022-12-18T03:01:37;-4.20;99.90
21944;DHT22;11136;48.778;9.126;2022-12-18T03:04:12;-4.20;99.90
21944;DHT22;11136;48.778;9.126;2022-12-18T03:06:43;-4.00;99.90
21944;DHT22;11136;48.778;9.126;2022-12-18T03:09:15;-4.20;99.90
21944;DHT22;11136;48.778;9.126;2022-12-18T03:11:52;-4.20;99.90
21944;DHT22;11136;48.778;9.126;2022-12-18T03:14:38;-4.20;99.90
21944;DHT22;11136;48.778;9.126;2022-12-18T03:17:07;-4.20;99.90
21944;DHT22;11136;48.778;9.126;2022-12-18T03:19:34;-4.20;99.90
21944;DHT22;11136;48.778;9.126;2022-12-18T03:22:03;-4.20;99.90
21944;DHT22;11136;48.778;9.126;2022-12-18T03:24:31;-4.20;99.90
21944;DHT22;11136;48.778;9.126;2022-12-18T03:27:01;-4.20;99.90
21944;DHT22;11136;48.778;9.126;2022-12-18T03:29:35;-4.20;99.90
21944;DHT22;11136;48.778;9.126;2022-12-18T03:32:11;-4.20;99.90
21944;DHT22;11136;48.778;9.126;2022-12-18T03:34:39;-4.30;99.90
21944;DHT22;11136;48.778;9.126;2022-12-18T03:37:05;-4.30;99.90
21944;DHT22;11136;48.778;9.126;2022-12-18T03:39:33;-4.30;99.90
21944;DHT22;11136;48.778;9.126;2022-12-18T03:42:29;-4.40;99.90
21944;DHT22;11136;48.778;9.126;2022-12-18T03:44:58;-4.40;99.90
21944;DHT22;11136;48.778;9.126;2022-12-18T03:47:33;-4.50;99.90
21944;DHT22;11136;48.778;9.126;2022-12-18T03:56:04;-4.60;99.90
21944;DHT22;11136;48.778;9.126;2022-12-18T03:58:32;-4.70;99.90
21944;DHT22;11136;48.778;9.126;2022-12-18T04:01:01;-4.70;99.90
21944;DHT22;11136;48.778;9.126;2022-12-18T04:03:28;-4.80;99.90
21944;DHT22;11136;48.778;9.126;2022-12-18T04:05:57;-4.80;99.90
21944;DHT22;11136;48.778;9.126;2022-12-18T04:08:24;-4.90;99.90
21944;DHT22;11136;48.778;9.126;2022-12-18T04:10:51;-4.90;99.90
21944;DHT22;11136;48.778;9.126;2022-12-18T04:13:32;-5.00;99.90
21944;DHT22;11136;48.778;9.126;2022-12-18T04:15:58;-5.00;99.90
21944;DHT22;11136;48.778;9.126;2022-12-18T04:18:23;-5.00;99.90
21944;DHT22;11136;48.778;9.126;2022-12-18T04:20:49;-5.00;99.90
21944;DHT22;11136;48.778;9.126;2022-12-18T04:23:14;-5.10;99.90
21944;DHT22;11136;48.778;9.126;2022-12-18T04:25:40;-4.90;99.90
21944;DHT22;11136;48.778;9.126;2022-12-18T04:28:06;-5.20;99.90
21944;DHT22;11136;48.778;9.126;2022-12-18T04:30:31;-5.20;99.90
21944;DHT22;11136;48.778;9.126;2022-12-18T04:32:57;-5.20;99.90
21944;DHT22;11136;48.778;9.126;2022-12-18T04:35:23;-5.20;99.90
21944;DHT22;11136;48.778;9.126;2022-12-18T04:37:48;-5.20;99.90
21944;DHT22;11136;48.778;9.126;2022-12-18T04:40:14;-5.30;99.90
21944;DHT22;11136;48.778;9.126;2022-12-18T04:42:40;-5.30;99.90
21944;DHT22;11136;48.778;9.126;2022-12-18T04:45:06;-5.30;99.90
21944;DHT22;11136;48.778;9.126;2022-12-18T04:47:32;-5.30;99.90
21944;DHT22;11136;48.778;9.126;2022-12-18T04:49:58;-5.30;99.90
21944;DHT22;11136;48.778;9.126;2022-12-18T04:52:23;-5.30;99.90
21944;DHT22;11136;48.778;9.126;2022-12-18T04:54:49;-5.30;99.90
21944;DHT22;11136;48.778;9.126;2022-12-18T04:57:14;-5.40;99.90
21944;DHT22;11136;48.778;9.126;2022-12-18T04:59:40;-5.40;99.90
21944;DHT22;11136;48.778;9.126;2022-12-18T05:02:06;-5.40;99.90
21944;DHT22;11136;48.778;9.126;2022-12-18T05:04:31;-5.50;99.90
21944;DHT22;11136;48.778;9.126;2022-12-18T05:06:57;-5.50;99.90
21944;DHT22;11136;48.778;9.126;2022-12-18T05:09:23;-5.50;99.90
21944;DHT22;11136;48.778;9.126;2022-12-18T05:11:49;-5.50;99.90
21944;DHT22;11136;48.778;9.126;2022-12-18T05:14:15;-5.50;99.90
21944;DHT22;11136;48.778;9.126;2022-12-18T05:16:40;-5.50;99.90
21944;DHT22;11136;48.778;9.126;2022-12-18T05:19:06;-5.50;99.90
21944;DHT22;11136;48.778;9.126;2022-12-18T05:21:31;-5.50;99.90
21944;DHT22;11136;48.778;9.126;2022-12-18T05:23:57;-5.50;99.90
21944;DHT22;11136;48.778;9.126;2022-12-18T05:26:22;-5.50;99.90
21944;DHT22;11136;48.778;9.126;2022-12-18T05:28:48;-5.30;99.90
21944;DHT22;11136;48.778;9.126;2022-12-18T05:31:14;-5.50;99.90
21944;DHT22;11136;48.778;9.126;2022-12-18T05:33:39;-5.40;99.90
21944;DHT22;11136;48.778;9.126;2022-12-18T05:36:07;-5.50;99.90
21944;DHT22;11136;48.778;9.126;2022-12-18T05:38:35;-5.50;99.90
21944;DHT22;11136;48.778;9.126;2022-12-18T05:41:00;-5.50;99.90
21944;DHT22;11136;48.778;9.126;2022-12-18T05:43:26;-5.60;99.90
21944;DHT22;11136;48.778;9.126;2022-12-18T05:45:53;-5.60;99.90
21944;DHT22;11136;48.778;9.126;2022-12-18T05:48:19;-5.60;99.90
21944;DHT22;11136;48.778;9.126;2022-12-18T05:50:46;-5.60;99.90
21944;DHT22;11136;48.778;9.126;2022-12-18T05:53:13;-5.50;99.90
21944;DHT22;11136;48.778;9.126;2022-12-18T05:55:41;-5.60;99.80
21944;DHT22;11136;48.778;9.126;2022-12-18T05:58:08;-5.70;99.80
21944;DHT22;11136;48.778;9.126;2022-12-18T06:00:36;-5.70;99.80
21944;DHT22;11136;48.778;9.126;2022-12-18T06:03:05;-5.70;99.80
21944;DHT22;11136;48.778;9.126;2022-12-18T06:05:38;-5.70;99.80
21944;DHT22;11136;48.778;9.126;2022-12-18T06:08:04;-5.70;99.80
21944;DHT22;11136;48.778;9.126;2022-12-18T06:10:30;-5.70;99.80
21944;DHT22;11136;48.778;9.126;2022-12-18T06:12:55;-5.70;99.80
21944;DHT22;11136;48.778;9.126;2022-12-18T06:15:21;-5.70;99.80
21944;DHT22;11136;48.778;9.126;2022-12-18T06:17:46;-5.70;99.80
21944;DHT22;11136;48.778;9.126;2022-12-18T06:20:12;-5.70;99.80
21944;DHT22;11136;48.778;9.126;2022-12-18T06:22:38;-5.80;99.80
21944;DHT22;11136;48.778;9.126;2022-12-18T06:25:04;-5.80;99.80
21944;DHT22;11136;48.778;9.126;2022-12-18T06:27:29;-5.80;99.60
21944;DHT22;11136;48.778;9.126;2022-12-18T06:29:55;-5.80;99.60
21944;DHT22;11136;48.778;9.126;2022-12-18T06:32:20;-5.80;99.60
21944;DHT22;11136;48.778;9.126;2022-12-18T06:34:46;-5.80;99.60
21944;DHT22;11136;48.778;9.126;2022-12-18T06:37:12;-5.90;99.60
21944;DHT22;11136;48.778;9.126;2022-12-18T06:39:37;-5.90;99.70
21944;DHT22;11136;48.778;9.126;2022-12-18T06:42:03;-5.70;99.70
21944;DHT22;11136;48.778;9.126;2022-12-18T06:44:28;-5.40;99.80
21944;DHT22;11136;48.778;9.126;2022-12-18T06:46:54;-5.90;99.70
21944;DHT22;11136;48.778;9.126;2022-12-18T06:49:20;-5.90;99.70
21944;DHT22;11136;48.778;9.126;2022-12-18T06:51:45;-5.90;99.70
21944;DHT22;11136;48.778;9.126;2022-12-18T06:54:11;-5.80;99.80
21944;DHT22;11136;48.778;9.126;2022-12-18T06:56:36;-5.60;99.80
21944;DHT22;11136;48.778;9.126;2022-12-18T06:59:02;-5.80;99.80
21944;DHT22;11136;48.778;9.126;2022-12-18T07:01:28;-5.90;99.70
21944;DHT22;11136;48.778;9.126;2022-12-18T07:03:55;-5.80;99.70
21944;DHT22;11136;48.778;9.126;2022-12-18T07:06:24;-5.80;99.70
21944;DHT22;11136;48.778;9.126;2022-12-18T07:08:51;-5.80;99.70
21944;DHT22;11136;48.778;9.126;2022-12-18T07:11:18;-5.80;99.70
21944;DHT22;11136;48.778;9.126;2022-12-18T07:13:45;-6.00;99.60
21944;DHT22;11136;48.778;9.126;2022-12-18T07:16:13;-5.90;99.60
21944;DHT22;11136;48.778;9.126;2022-12-18T07:18:38;-5.90;99.60
21944;DHT22;11136;48.778;9.126;2022-12-18T07:21:06;-5.90;99.60
21944;DHT22;11136;48.778;9.126;2022-12-18T07:23:34;-5.90;99.60
21944;DHT22;11136;48.778;9.126;2022-12-18T07:26:11;-5.90;99.60
21944;DHT22;11136;48.778;9.126;2022-12-18T07:28:38;-5.80;99.60
21944;DHT22;11136;48.778;9.126;2022-12-18T07:31:10;-5.80;99.60
21944;DHT22;11136;48.778;9.126;2022-12-18T07:33:36;-5.80;99.60
21944;DHT22;11136;48.778;9.126;2022-12-18T07:36:06;-5.80;99.60
21944;DHT22;11136;48.778;9.126;2022-12-18T07:38:33;-5.80;99.60
21944;DHT22;11136;48.778;9.126;2022-12-18T07:41:05;-5.80;99.70
21944;DHT22;11136;48.778;9.126;2022-12-18T07:43:31;-5.80;99.70
21944;DHT22;11136;48.778;9.126;2022-12-18T07:45:56;-5.80;99.70
21944;DHT22;11136;48.778;9.126;2022-12-18T07:48:22;-5.80;99.80
21944;DHT22;11136;48.778;9.126;2022-12-18T07:50:48;-5.80;99.80
21944;DHT22;11136;48.778;9.126;2022-12-18T07:53:13;-5.70;99.80
21944;DHT22;11136;48.778;9.126;2022-12-18T07:55:40;-5.70;99.80
21944;DHT22;11136;48.778;9.126;2022-12-18T07:58:07;-5.70;99.80
21944;DHT22;11136;48.778;9.126;2022-12-18T08:00:32;-5.70;99.80
21944;DHT22;11136;48.778;9.126;2022-12-18T08:02:58;-5.70;99.90
21944;DHT22;11136;48.778;9.126;2022-12-18T08:05:25;-5.70;99.80
21944;DHT22;11136;48.778;9.126;2022-12-18T08:07:52;-5.60;99.90
21944;DHT22;11136;48.778;9.126;2022-12-18T08:10:18;-5.70;99.80
21944;DHT22;11136;48.778;9.126;2022-12-18T08:12:43;-5.60;99.80
21944;DHT22;11136;48.778;9.126;2022-12-18T08:15:09;-5.60;99.90
21944;DHT22;11136;48.778;9.126;2022-12-18T08:17:35;-5.60;99.90
21944;DHT22;11136;48.778;9.126;2022-12-18T08:20:00;-5.60;99.90
21944;DHT22;11136;48.778;9.126;2022-12-18T08:22:26;-5.50;99.90
21944;DHT22;11136;48.778;9.126;2022-12-18T08:24:52;-5.60;99.90
21944;DHT22;11136;48.778;9.126;2022-12-18T08:27:17;-5.60;99.90
21944;DHT22;11136;48.778;9.126;2022-12-18T08:29:43;-5.50;99.90
21944;DHT22;11136;48.778;9.126;2022-12-18T08:32:09;-5.40;99.90
21944;DHT22;11136;48.778;9.126;2022-12-18T08:34:34;-5.40;99.90
21944;DHT22;11136;48.778;9.126;2022-12-18T08:37:00;-5.20;99.90
21944;DHT22;11136;48.778;9.126;2022-12-18T08:39:26;-5.40;99.90
21944;DHT22;11136;48.778;9.126;2022-12-18T08:41:51;-5.30;99.90
21944;DHT22;11136;48.778;9.126;2022-12-18T08:44:35;-5.20;99.90
21944;DHT22;11136;48.778;9.126;2022-12-18T08:47:05;-5.20;99.90
21944;DHT22;11136;48.778;9.126;2022-12-18T08:49:31;-5.10;99.90
21944;DHT22;11136;48.778;9.126;2022-12-18T08:51:57;-5.10;99.90
21944;DHT22;11136;48.778;9.126;2022-12-18T08:54:23;-5.00;99.90
21944;DHT22;11136;48.778;9.126;2022-12-18T08:56:49;-5.00;99.90
21944;DHT22;11136;48.778;9.126;2022-12-18T08:59:16;-4.90;99.90
21944;DHT22;11136;48.778;9.126;2022-12-18T09:01:42;-4.80;99.90
21944;DHT22;11136;48.778;9.126;2022-12-18T09:04:11;-4.70;99.90
21944;DHT22;11136;48.778;9.126;2022-12-18T09:06:37;-4.50;99.90
21944;DHT22;11136;48.778;9.126;2022-12-18T09:09:03;-4.40;99.90
21944;DHT22;11136;48.778;9.126;2022-12-18T09:11:30;-4.20;99.90
21944;DHT22;11136;48.778;9.126;2022-12-18T09:13:56;-4.00;99.90
21944;DHT22;11136;48.778;9.126;2022-12-18T09:16:23;-3.90;99.90
21944;DHT22;11136;48.778;9.126;2022-12-18T09:18:49;-3.70;99.90
21944;DHT22;11136;48.778;9.126;2022-12-18T09:21:20;-3.60;99.90
21944;DHT22;11136;48.778;9.126;2022-12-18T09:23:50;-3.50;99.90
21944;DHT22;11136;48.778;9.126;2022-12-18T09:26:16;-3.40;99.90
21944;DHT22;11136;48.778;9.126;2022-12-18T09:28:42;-3.20;99.90
21944;DHT22;11136;48.778;9.126;2022-12-18T09:31:10;-3.10;99.90
21944;DHT22;11136;48.778;9.126;2022-12-18T09:33:36;-3.10;99.90
21944;DHT22;11136;48.778;9.126;2022-12-18T09:36:07;-2.90;99.90
21944;DHT22;11136;48.778;9.126;2022-12-18T09:38:34;-2.80;99.90
21944;DHT22;11136;48.778;9.126;2022-12-18T09:43:48;-2.60;99.90
21944;DHT22;11136;48.778;9.126;2022-12-18T09:46:19;-2.50;99.90
21944;DHT22;11136;48.778;9.126;2022-12-18T09:48:48;-2.40;99.90
21944;DHT22;11136;48.778;9.126;2022-12-18T09:51:33;-2.30;99.90
21944;DHT22;11136;48.778;9.126;2022-12-18T09:54:10;-2.10;99.90
21944;DHT22;11136;48.778;9.126;2022-12-18T09:56:41;-2.00;99.90
21944;DHT22;11136;48.778;9.126;2022-12-18T09:59:24;-1.90;99.90
21944;DHT22;11136;48.778;9.126;2022-12-18T10:01:52;-1.80;99.90
21944;DHT22;11136;48.778;9.126;2022-12-18T10:04:18;-1.70;99.90
21944;DHT22;11136;48.778;9.126;2022-12-18T10:06:55;-1.50;99.90
21944;DHT22;11136;48.778;9.126;2022-12-18T10:26:11;-1.30;99.90
21944;DHT22;11136;48.778;9.126;2022-12-18T10:28:39;-1.30;99.90
21944;DHT22;11136;48.778;9.126;2022-12-18T10:31:07;-1.30;99.90
21944;DHT22;11136;48.778;9.126;2022-12-18T10:33:33;-1.20;99.90
21944;DHT22;11136;48.778;9.126;2022-12-18T10:35:59;-0.90;99.90
21944;DHT22;11136;48.778;9.126;2022-12-18T10:38:27;-0.90;99.90
21944;DHT22;11136;48.778;9.126;2022-12-18T10:40:55;-0.80;99.90
21944;DHT22;11136;48.778;9.126;2022-12-18T10:48:53;-0.40;99.90
21944;DHT22;11136;48.778;9.126;2022-12-18T10:51:23;-0.30;99.90
21944;DHT22;11136;48.778;9.126;2022-12-18T10:54:12;-0.30;99.90
21944;DHT22;11136;48.778;9.126;2022-12-18T10:56:39;-0.20;99.90
21944;DHT22;11136;48.778;9.126;2022-12-18T10:59:07;-0.20;99.90
21944;DHT22;11136;48.778;9.126;2022-12-18T11:01:51;-0.20;99.90
21944;DHT22;11136;48.778;9.126;2022-12-18T11:04:23;-0.10;99.90
21944;DHT22;11136;48.778;9.126;2022-12-18T11:07:00;-0.10;99.90
21944;DHT22;11136;48.778;9.126;2022-12-18T11:09:31;-0.10;99.90
21944;DHT22;11136;48.778;9.126;2022-12-18T11:12:00;-0.10;99.90
21944;DHT22;11136;48.778;9.126;2022-12-18T11:14:33;-0.10;99.90
21944;DHT22;11136;48.778;9.126;2022-12-18T11:17:00;0.00;99.90
21944;DHT22;11136;48.778;9.126;2022-12-18T11:19:34;-0.10;99.90
21944;DHT22;11136;48.778;9.126;2022-12-18T11:22:02;-0.10;99.90
21944;DHT22;11136;48.778;9.126;2022-12-18T11:24:34;-0.10;99.90
21944;DHT22;11136;48.778;9.126;2022-12-18T11:27:03;0.00;99.90
21944;DHT22;11136;48.778;9.126;2022-12-18T11:29:37;0.20;99.90
21944;DHT22;11136;48.778;9.126;2022-12-18T11:34:43;0.50;99.90
21944;DHT22;11136;48.778;9.126;2022-12-18T11:37:11;0.50;99.90
21944;DHT22;11136;48.778;9.126;2022-12-18T11:39:52;0.60;99.90
21944;DHT22;11136;48.778;9.126;2022-12-18T11:50:48;0.80;99.90
21944;DHT22;11136;48.778;9.126;2022-12-18T11:53:15;0.90;99.90
21944;DHT22;11136;48.778;9.126;2022-12-18T11:58:50;0.90;99.90
21944;DHT22;11136;48.778;9.126;2022-12-18T12:01:41;1.00;99.90
21944;DHT22;11136;48.778;9.126;2022-12-18T12:12:16;1.20;99.90
21944;DHT22;11136;48.778;9.126;2022-12-18T12:14:56;1.20;99.90
21944;DHT22;11136;48.778;9.126;2022-12-18T12:23:29;1.30;99.90
21944;DHT22;11136;48.778;9.126;2022-12-18T12:25:58;1.30;99.90
21944;DHT22;11136;48.778;9.126;2022-12-18T12:37:37;1.30;99.90
21944;DHT22;11136;48.778;9.126;2022-12-18T12:40:05;1.30;99.90
21944;DHT22;11136;48.778;9.126;2022-12-18T12:42:44;1.30;99.90
21944;DHT22;11136;48.778;9.126;2022-12-18T12:50:47;1.20;99.90
21944;DHT22;11136;48.778;9.126;2022-12-18T12:53:30;1.20;99.90
21944;DHT22;11136;48.778;9.126;2022-12-18T12:55:56;1.10;99.90
21944;DHT22;11136;48.778;9.126;2022-12-18T12:58:33;1.10;99.90
21944;DHT22;11136;48.778;9.126;2022-12-18T13:01:17;1.10;99.90
21944;DHT22;11136;48.778;9.126;2022-12-18T13:06:22;1.20;99.90
21944;DHT22;11136;48.778;9.126;2022-12-18T13:08:57;1.20;99.90
21944;DHT22;11136;48.778;9.126;2022-12-18T13:11:39;1.20;99.90
21944;DHT22;11136;48.778;9.126;2022-12-18T13:14:31;1.30;99.90
21944;DHT22;11136;48.778;9.126;2022-12-18T13:17:27;1.30;99.90
21944;DHT22;11136;48.778;9.126;2022-12-18T13:20:10;1.40;99.90
21944;DHT22;11136;48.778;9.126;2022-12-18T13:22:39;1.40;99.90
21944;DHT22;11136;48.778;9.126;2022-12-18T13:35:42;1.40;99.90
21944;DHT22;11136;48.778;9.126;2022-12-18T13:43:55;1.30;99.90
21944;DHT22;11136;48.778;9.126;2022-12-18T13:49:03;1.30;99.90
21944;DHT22;11136;48.778;9.126;2022-12-18T13:51:33;1.20;99.90
21944;DHT22;11136;48.778;9.126;2022-12-18T13:54:01;1.10;99.90
21944;DHT22;11136;48.778;9.126;2022-12-18T13:56:31;1.10;99.90
21944;DHT22;11136;48.778;9.126;2022-12-18T13:59:24;1.00;99.90
21944;DHT22;11136;48.778;9.126;2022-12-18T14:02:00;1.00;99.90
21944;DHT22;11136;48.778;9.126;2022-12-18T14:04:29;0.90;99.90
21944;DHT22;11136;48.778;9.126;2022-12-18T14:07:13;0.80;99.90
21944;DHT22;11136;48.778;9.126;2022-12-18T14:09:44;0.70;99.90
21944;DHT22;11136;48.778;9.126;2022-12-18T14:12:27;0.60;99.90
21944;DHT22;11136;48.778;9.126;2022-12-18T14:17:54;0.50;99.90
21944;DHT22;11136;48.778;9.126;2022-12-18T14:20:20;0.50;99.90
21944;DHT22;11136;48.778;9.126;2022-12-18T14:22:48;0.50;99.90
21944;DHT22;11136;48.778;9.126;2022-12-18T14:25:21;0.50;99.90
21944;DHT22;11136;48.778;9.126;2022-12-18T14:27:53;0.40;99.90
21944;DHT22;11136;48.778;9.126;2022-12-18T14:30:32;0.40;99.90
21944;DHT22;11136;48.778;9.126;2022-12-18T14:33:39;0.30;99.90
21944;DHT22;11136;48.778;9.126;2022-12-18T14:36:05;0.30;99.90
21944;DHT22;11136;48.778;9.126;2022-12-18T14:38:33;0.30;99.90
21944;DHT22;11136;48.778;9.126;2022-12-18T14:41:00;0.20;99.90
21944;DHT22;11136;48.778;9.126;2022-12-18T14:43:28;0.20;99.90
21944;DHT22;11136;48.778;9.126;2022-12-18T14:45:54;0.20;99.90
21944;DHT22;11136;48.778;9.126;2022-12-18T14:48:21;0.20;99.90
21944;DHT22;11136;48.778;9.126;2022-12-18T14:50:58;0.20;99.90
21944;DHT22;11136;48.778;9.126;2022-12-18T14:53:39;0.20;99.90
21944;DHT22;11136;48.778;9.126;2022-12-18T14:56:23;0.10;99.90
21944;DHT22;11136;48.778;9.126;2022-12-18T14:58:55;0.10;99.90
21944;DHT22;11136;48.778;9.126;2022-12-18T15:03:53;0.10;99.90
21944;DHT22;11136;48.778;9.126;2022-12-18T15:08:53;0.10;99.90
21944;DHT22;11136;48.778;9.126;2022-12-18T15:11:45;0.00;99.90
21944;DHT22;11136;48.778;9.126;2022-12-18T15:16:56;0.00;99.90
21944;DHT22;11136;48.778;9.126;2022-12-18T15:19:23;0.00;99.90
21944;DHT22;11136;48.778;9.126;2022-12-18T15:21:51;-0.10;99.90
21944;DHT22;11136;48.778;9.126;2022-12-18T15:24:19;-0.10;99.90
21944;DHT22;11136;48.778;9.126;2022-12-18T15:26:46;-0.10;99.90
21944;DHT22;11136;48.778;9.126;2022-12-18T15:29:21;-0.10;99.90
21944;DHT22;11136;48.778;9.126;2022-12-18T15:32:02;-0.20;99.90
21944;DHT22;11136;48.778;9.126;2022-12-18T15:34:28;-0.20;99.90
21944;DHT22;11136;48.778;9.126;2022-12-18T15:36:54;-0.20;99.90
21944;DHT22;11136;48.778;9.126;2022-12-18T15:39:19;-0.20;99.90
21944;DHT22;11136;48.778;9.126;2022-12-18T15:41:45;-0.20;99.90
21944;DHT22;11136;48.778;9.126;2022-12-18T15:44:30;-0.30;99.90
21944;DHT22;11136;48.778;9.126;2022-12-18T15:46:56;-0.30;99.90
21944;DHT22;11136;48.778;9.126;2022-12-18T15:49:21;-0.30;99.90
21944;DHT22;11136;48.778;9.126;2022-12-18T15:51:53;-0.30;99.90
21944;DHT22;11136;48.778;9.126;2022-12-18T15:54:19;-0.30;99.90
21944;DHT22;11136;48.778;9.126;2022-12-18T15:57:10;-0.30;99.90
21944;DHT22;11136;48.778;9.126;2022-12-18T15:59:48;-0.30;99.90
21944;DHT22;11136;48.778;9.126;2022-12-18T16:02:16;-0.40;99.90
21944;DHT22;11136;48.778;9.126;2022-12-18T16:04:42;-0.40;99.90
21944;DHT22;11136;48.778;9.126;2022-12-18T16:07:09;-0.40;99.90
21944;DHT22;11136;48.778;9.126;2022-12-18T16:09:35;-0.40;99.90
21944;DHT22;11136;48.778;9.126;2022-12-18T16:12:00;-0.40;99.90
21944;DHT22;11136;48.778;9.126;2022-12-18T16:14:28;-0.40;99.90
21944;DHT22;11136;48.778;9.126;2022-12-18T16:16:59;-0.40;99.90
21944;DHT22;11136;48.778;9.126;2022-12-18T16:19:25;-0.40;99.90
21944;DHT22;11136;48.778;9.126;2022-12-18T16:21:53;-0.50;99.90
21944;DHT22;11136;48.778;9.126;2022-12-18T16:24:32;-0.50;99.90
21944;DHT22;11136;48.778;9.126;2022-12-18T16:26:59;-0.40;99.90
21944;DHT22;11136;48.778;9.126;2022-12-18T16:29:27;-0.50;99.90
21944;DHT22;11136;48.778;9.126;2022-12-18T16:31:57;-0.50;99.90
21944;DHT22;11136;48.778;9.126;2022-12-18T16:34:28;-0.40;99.90
21944;DHT22;11136;48.778;9.126;2022-12-18T16:37:00;-0.50;99.90
21944;DHT22;11136;48.778;9.126;2022-12-18T16:39:26;-0.50;99.90
21944;DHT22;11136;48.778;9.126;2022-12-18T16:41:52;-0.40;99.90
21944;DHT22;11136;48.778;9.126;2022-12-18T16:44:18;-0.40;99.90
21944;DHT22;11136;48.778;9.126;2022-12-18T16:46:44;-0.40;99.90
21944;DHT22;11136;48.778;9.126;2022-12-18T16:49:14;-0.40;99.90
21944;DHT22;11136;48.778;9.126;2022-12-18T16:51:40;-0.30;99.90
21944;DHT22;11136;48.778;9.126;2022-12-18T16:54:05;-0.50;99.90
21944;DHT22;11136;48.778;9.126;2022-12-18T16:56:31;-0.50;99.90
21944;DHT22;11136;48.778;9.126;2022-12-18T16:58:59;-0.50;99.90
21944;DHT22;11136;48.778;9.126;2022-12-18T17:01:26;-0.50;99.90
21944;DHT22;11136;48.778;9.126;2022-12-18T17:03:53;-0.50;99.90
21944;DHT22;11136;48.778;9.126;2022-12-18T17:06:23;-0.50;99.90
21944;DHT22;11136;48.778;9.126;2022-12-18T17:08:55;-0.50;99.90
21944;DHT22;11136;48.778;9.126;2022-12-18T17:11:21;-0.50;99.90
21944;DHT22;11136;48.778;9.126;2022-12-18T17:13:47;-0.40;99.90
21944;DHT22;11136;48.778;9.126;2022-12-18T17:16:13;-0.40;99.90
21944;DHT22;11136;48.778;9.126;2022-12-18T17:18:38;-0.40;99.90
21944;DHT22;11136;48.778;9.126;2022-12-18T17:21:05;-0.40;99.90
21944;DHT22;11136;48.778;9.126;2022-12-18T17:23:33;-0.30;99.90
21944;DHT22;11136;48.778;9.126;2022-12-18T17:25:59;-0.30;99.90
21944;DHT22;11136;48.778;9.126;2022-12-18T17:28:26;-0.10;99.90
21944;DHT22;11136;48.778;9.126;2022-12-18T17:30:53;-0.30;99.90
21944;DHT22;11136;48.778;9.126;2022-12-18T17:33:19;-0.30;99.90
21944;DHT22;11136;48.778;9.126;2022-12-18T17:35:45;-0.30;99.90
21944;DHT22;11136;48.778;9.126;2022-12-18T17:38:10;-0.10;99.90
21944;DHT22;11136;48.778;9.126;2022-12-18T17:40:36;-0.30;99.90
21944;DHT22;11136;48.778;9.126;2022-12-18T17:43:02;-0.20;99.90
21944;DHT22;11136;48.778;9.126;2022-12-18T17:45:27;-0.20;99.90
21944;DHT22;11136;48.778;9.126;2022-12-18T17:47:53;-0.20;99.90
21944;DHT22;11136;48.778;9.126;2022-12-18T17:50:19;-0.20;99.90
21944;DHT22;11136;48.778;9.126;2022-12-18T17:52:44;-0.20;99.90